Knoxville, TN (37914)

06:05 AM EDT die 30o September, anno 2016 (GMT -0400)
Holston Hills | | Change Station

Elev 1070 ft 36.00 °N, 83.84 °W | Updated 57 seconds ago

Scattered Clouds
Nubes Dispersae
52.0 °F
Feels Like 52.0 °F
N
0.0
Ventus Variabilis Ventus from Magis Auster quam Eurus
Gusts 0.0 mph

Hodie
High -- | Low -- °F
--% Chance of Precip.
Yesterday
High -- | Low -- °F
Precip. -- in
Pressio 30.01 in
Visibilitas 10.0 milia passuum
Clouds Nubes Dispersae 4000 ft
Frigus in quo Ros apparet 50 °F
Umor 93%
Rainfall 0.00 in
Snow Depth Not available.
7:29 AM 7:19 PM
Waning Crescent, 0% visible
METAR KTYS 300953Z 00000KT 10SM SCT040 10/08 A3002 RMK AO2 SLP160 T01000078
Pressio 30.01 in
Visibilitas 10.0 milia passuum
Clouds Nubes Dispersae 4000 ft
Frigus in quo Ros apparet 50 °F
Umor 93%
Rainfall 0.00 in
Snow Depth Not available.
7:29 AM 7:19 PM
Waning Crescent, 0% visible
METAR KTYS 300953Z 00000KT 10SM SCT040 10/08 A3002 RMK AO2 SLP160 T01000078

10-Day Weather Forecast

Almanac

Astronomy

Sep. 30, 2016 Rise Set
Actual Time
Civil Twilight
Nautical Twilight
Astronomical Twilight
Moon
Length Of Visible Light
Length of Day
Tomorrow will be .
, % of the Moon is Illuminated

Today's Extremes

State Highs State Lows

Community

WunderPhotos

Upload Photos

1,942,687 photos uploaded!

WunderBlog® & News

Nearby

Air Quality

  Air Quality AQ Index Pollutant
Not available.

Snow Depth

Station Depth Elevation

Earthquake Activity

City Distance Mag. Time & Date
Minimum magnitude displayed is 2.5.

Coastal Water Temperatures

Locus Calor

Stations

Nearby Weather Stations

Station Location Temp Frigus Venti Frigus in quo Ros apparet Umor Ventus Precip. Elev Renovata Type
                   

Watches & Warnings

There are currently no watches in effect.